createdAt,value
2019-05-21T00:00:48.712Z,0
2019-05-21T00:01:48.839Z,0
2019-05-21T00:02:49.261Z,0
2019-05-21T00:03:49.722Z,0
2019-05-21T00:04:50.132Z,0
2019-05-21T00:05:50.395Z,0
2019-05-21T00:06:50.597Z,0
2019-05-21T00:07:51.034Z,0
2019-05-21T00:08:51.429Z,0
2019-05-21T00:09:51.838Z,0
2019-05-21T00:10:52.245Z,0
2019-05-21T00:11:53.008Z,0
2019-05-21T00:12:53.433Z,0
2019-05-21T00:13:53.552Z,0
2019-05-21T00:14:54.044Z,0
2019-05-21T00:15:53.976Z,0
2019-05-21T00:16:54.663Z,0
2019-05-21T00:17:55.366Z,0
2019-05-21T00:18:56.364Z,0
2019-05-21T00:19:56.755Z,0
2019-05-21T00:20:57.157Z,0
2019-05-21T00:21:57.591Z,0
2019-05-21T00:22:58.279Z,0
2019-05-21T00:23:58.986Z,0
2019-05-21T00:25:00.120Z,0
2019-05-21T00:26:00.059Z,0
2019-05-21T00:27:00.845Z,0
2019-05-21T00:28:01.252Z,0
2019-05-21T00:29:01.987Z,0
2019-05-21T00:30:02.111Z,0
2019-05-21T00:31:02.724Z,0
2019-05-21T00:32:03.233Z,0
2019-05-21T00:33:03.982Z,0
2019-05-21T00:34:04.097Z,0
2019-05-21T00:35:04.505Z,0
2019-05-21T00:36:05.451Z,0
2019-05-21T00:37:06.100Z,0
2019-05-21T00:38:06.217Z,0
2019-05-21T00:39:06.632Z,0
2019-05-21T00:40:07.358Z,0
2019-05-21T00:41:07.764Z,0
2019-05-21T00:42:07.954Z,0
2019-05-21T00:43:08.081Z,0
2019-05-21T00:44:08.495Z,0
2019-05-21T00:45:08.905Z,0
2019-05-21T00:46:09.845Z,0
2019-05-21T00:47:10.262Z,0
2019-05-21T00:48:11.923Z,0
2019-05-21T00:49:11.335Z,0
2019-05-21T00:50:11.810Z,0
2019-05-21T00:51:12.222Z,0
2019-05-21T00:52:19.300Z,0
2019-05-21T00:53:13.710Z,0
2019-05-21T00:54:14.432Z,0
2019-05-21T00:55:14.568Z,0
2019-05-21T00:56:16.395Z,0
2019-05-21T00:57:17.266Z,0
2019-05-21T00:58:16.661Z,0
2019-05-21T00:59:17.665Z,0
2019-05-21T01:00:19.182Z,0
2019-05-21T01:01:18.572Z,0
2019-05-21T01:02:19.273Z,0
2019-05-21T01:03:19.673Z,0
2019-05-21T01:04:20.081Z,0
2019-05-21T01:05:20.509Z,0
2019-05-21T01:06:21.780Z,0
2019-05-21T01:07:22.489Z,0
2019-05-21T01:08:23.183Z,0
2019-05-21T01:09:23.925Z,0
2019-05-21T01:10:24.034Z,0
2019-05-21T01:11:24.443Z,0
2019-05-21T01:12:24.851Z,0
2019-05-21T01:13:25.263Z,0
2019-05-21T01:14:25.657Z,0
2019-05-21T01:15:26.368Z,0
2019-05-21T01:16:27.299Z,0
2019-05-21T01:17:27.699Z,0
2019-05-21T01:18:27.814Z,0
2019-05-21T01:19:28.223Z,0
2019-05-21T01:20:29.202Z,0
2019-05-21T01:21:29.904Z,0
2019-05-21T01:22:30.317Z,0
2019-05-21T01:23:30.725Z,0
2019-05-21T01:24:31.124Z,0
2019-05-21T01:25:31.521Z,0
2019-05-21T01:26:32.166Z,0
2019-05-21T01:27:32.575Z,0
2019-05-21T01:28:33.262Z,0
2019-05-21T01:29:34.554Z,0
2019-05-21T01:30:34.675Z,0
2019-05-21T01:31:35.387Z,0
2019-05-21T01:32:35.886Z,0
2019-05-21T01:33:36.319Z,0
2019-05-21T01:34:37.701Z,0
2019-05-21T01:35:37.790Z,0
2019-05-21T01:36:38.002Z,0
2019-05-21T01:37:38.682Z,0
2019-05-21T01:38:39.093Z,0
2019-05-21T01:39:39.803Z,0
2019-05-21T01:40:40.504Z,0
2019-05-21T01:41:41.202Z,0
2019-05-21T01:42:41.318Z,0
2019-05-21T01:43:42.286Z,0
2019-05-21T01:44:42.679Z,0
2019-05-21T01:45:43.068Z,0
2019-05-21T01:46:44.002Z,0
2019-05-21T01:47:44.701Z,0
2019-05-21T01:48:45.677Z,0
2019-05-21T01:49:45.801Z,0
2019-05-21T01:50:46.486Z,0
2019-05-21T01:51:46.614Z,0
2019-05-21T01:52:47.068Z,0
2019-05-21T01:53:47.459Z,0
2019-05-21T01:54:47.877Z,0
2019-05-21T01:55:48.288Z,0
2019-05-21T01:56:49.530Z,0
2019-05-21T01:57:49.921Z,0
2019-05-21T01:58:50.587Z,0
2019-05-21T01:59:51.021Z,0
2019-05-21T02:00:51.991Z,0
2019-05-21T02:01:52.685Z,0
2019-05-21T02:02:53.067Z,0
2019-05-21T02:03:53.795Z,0
2019-05-21T02:04:54.512Z,0
2019-05-21T02:05:55.221Z,0
2019-05-21T02:06:56.162Z,0
2019-05-21T02:07:56.932Z,0
2019-05-21T02:08:57.941Z,0
2019-05-21T02:09:58.068Z,0
2019-05-21T02:10:58.214Z,0
2019-05-21T02:11:59.236Z,0
2019-05-21T02:12:59.364Z,0
2019-05-21T02:13:59.833Z,0
2019-05-21T02:15:00.246Z,0
2019-05-21T02:16:01.265Z,0
2019-05-21T02:17:02.005Z,0
2019-05-21T02:18:02.163Z,0
2019-05-21T02:19:02.573Z,0
2019-05-21T02:20:03.650Z,0
2019-05-21T02:21:04.050Z,0
2019-05-21T02:22:04.438Z,0
2019-05-21T02:23:04.841Z,0
2019-05-21T02:24:05.247Z,0
2019-05-21T02:25:05.941Z,0
2019-05-21T02:26:06.379Z,0
2019-05-21T02:27:06.306Z,0
2019-05-21T02:28:07.101Z,0
2019-05-21T02:29:08.131Z,0
2019-05-21T02:30:11.021Z,0
2019-05-21T02:31:08.765Z,0
2019-05-21T02:32:09.505Z,0
2019-05-21T02:33:09.912Z,0
2019-05-21T02:34:10.604Z,0
2019-05-21T02:35:11.674Z,0
2019-05-21T02:36:11.639Z,0
2019-05-21T02:37:14.388Z,0
2019-05-21T02:38:12.681Z,0
2019-05-21T02:39:13.694Z,0
2019-05-21T02:40:13.832Z,0
2019-05-21T02:41:14.520Z,0
2019-05-21T02:42:15.202Z,0
2019-05-21T02:43:15.880Z,0
2019-05-21T02:44:16.279Z,0
2019-05-21T02:45:17.009Z,0
2019-05-21T02:46:17.426Z,0
2019-05-21T02:47:18.645Z,0
2019-05-21T02:48:19.388Z,0
2019-05-21T02:49:20.407Z,0
2019-05-21T02:50:21.116Z,0
2019-05-21T02:51:20.822Z,0
2019-05-21T02:52:21.229Z,0
2019-05-21T02:53:21.939Z,0
2019-05-21T02:54:39.102Z,0
2019-05-21T02:55:23.961Z,0
2019-05-21T02:56:24.668Z,0
2019-05-21T02:57:25.471Z,0
2019-05-21T02:58:25.606Z,0
2019-05-21T02:59:26.602Z,0
2019-05-21T03:00:27.302Z,0
2019-05-21T03:01:28.645Z,0
2019-05-21T03:02:28.349Z,0
2019-05-21T03:03:29.056Z,0
2019-05-21T03:04:29.490Z,0
2019-05-21T03:05:30.179Z,0
2019-05-21T03:06:31.171Z,0
2019-05-21T03:07:31.905Z,0
2019-05-21T03:08:31.926Z,0
2019-05-21T03:09:32.626Z,0
2019-05-21T03:10:33.328Z,0
2019-05-21T03:11:34.025Z,0
2019-05-21T03:12:34.741Z,0
2019-05-21T03:13:35.844Z,0
2019-05-21T03:14:36.838Z,0
2019-05-21T03:15:36.260Z,0
2019-05-21T03:16:37.561Z,0
2019-05-21T03:17:38.083Z,0
2019-05-21T03:18:38.509Z,0
2019-05-21T03:19:39.488Z,4
2019-05-21T03:20:39.606Z,4
2019-05-21T03:21:40.028Z,0
2019-05-21T03:22:41.307Z,0
2019-05-21T03:23:42.011Z,0
2019-05-21T03:24:42.434Z,0
2019-05-21T03:25:43.172Z,4
2019-05-21T03:26:43.875Z,4
2019-05-21T03:27:44.093Z,4
2019-05-21T03:28:44.895Z,4
2019-05-21T03:29:45.881Z,4
2019-05-21T03:30:46.603Z,4
2019-05-21T03:31:47.590Z,4
2019-05-21T03:32:48.348Z,8
2019-05-21T03:33:48.416Z,8
2019-05-21T03:34:49.535Z,4
2019-05-21T03:35:50.181Z,4
2019-05-21T03:36:50.236Z,4
2019-05-21T03:37:50.806Z,4
2019-05-21T03:38:51.832Z,8
2019-05-21T03:39:53.129Z,8
2019-05-21T03:40:53.589Z,8
2019-05-21T03:41:54.006Z,12
2019-05-21T03:42:54.697Z,8
2019-05-21T03:43:55.701Z,8
2019-05-21T03:45:14.039Z,12
2019-05-21T03:45:56.755Z,12
2019-05-21T03:46:57.739Z,12
2019-05-21T03:47:58.563Z,16
2019-05-21T03:48:59.360Z,16
2019-05-21T03:49:59.758Z,20
2019-05-21T03:51:00.454Z,20
2019-05-21T03:52:00.908Z,24
2019-05-21T03:53:01.912Z,20
2019-05-21T03:54:01.907Z,24
2019-05-21T03:55:03.177Z,24
2019-05-21T03:56:03.200Z,24
2019-05-21T03:57:03.901Z,24
2019-05-21T03:58:04.180Z,24
2019-05-21T03:59:04.886Z,28
2019-05-21T04:00:05.860Z,32
2019-05-21T04:01:06.288Z,28
2019-05-21T04:02:06.823Z,28
2019-05-21T04:03:07.549Z,32
2019-05-21T04:04:08.848Z,36
2019-05-21T04:05:08.845Z,40
2019-05-21T04:06:09.850Z,40
2019-05-21T04:07:10.572Z,44
2019-05-21T04:08:11.077Z,48
2019-05-21T04:09:11.795Z,48
2019-05-21T04:10:12.795Z,48
2019-05-21T04:11:13.534Z,52
2019-05-21T04:12:13.966Z,52
2019-05-21T04:13:15.533Z,56
2019-05-21T04:14:15.518Z,56
2019-05-21T04:15:16.085Z,60
2019-05-21T04:16:16.105Z,60
2019-05-21T04:17:17.162Z,60
2019-05-21T04:18:17.684Z,60
2019-05-21T04:19:17.858Z,60
2019-05-21T04:20:18.290Z,64
2019-05-21T04:21:18.423Z,60
2019-05-21T04:22:18.534Z,60
2019-05-21T04:23:19.246Z,60
2019-05-21T04:24:20.873Z,60
2019-05-21T04:25:19.267Z,60
2019-05-21T04:26:19.717Z,60
2019-05-21T04:27:20.147Z,60
2019-05-21T04:28:21.326Z,60
2019-05-21T04:29:21.310Z,60
2019-05-21T04:30:22.442Z,60
2019-05-21T04:31:22.461Z,64
2019-05-21T04:32:23.175Z,64
2019-05-21T04:33:24.444Z,64
2019-05-21T04:34:25.147Z,68
2019-05-21T04:35:25.831Z,72
2019-05-21T04:36:26.871Z,76
2019-05-21T04:37:28.634Z,84
2019-05-21T04:38:28.872Z,92
2019-05-21T04:39:30.392Z,96
2019-05-21T04:40:30.208Z,96
2019-05-21T04:41:30.930Z,92
2019-05-21T04:42:31.344Z,88
2019-05-21T04:43:32.326Z,100
2019-05-21T04:44:32.755Z,104
2019-05-21T04:45:33.475Z,108
2019-05-21T04:46:33.922Z,116
2019-05-21T04:47:34.654Z,120
2019-05-21T04:48:35.068Z,132
2019-05-21T04:49:35.778Z,136
2019-05-21T04:50:36.495Z,144
2019-05-21T04:51:37.316Z,144
2019-05-21T04:52:37.308Z,144
2019-05-21T04:53:38.000Z,148
2019-05-21T04:54:38.422Z,156
2019-05-21T04:55:39.130Z,172
2019-05-21T04:56:40.152Z,172
2019-05-21T04:57:43.206Z,184
2019-05-21T04:58:41.571Z,184
2019-05-21T04:59:41.270Z,180
2019-05-21T05:00:42.275Z,172
2019-05-21T05:01:42.267Z,160
2019-05-21T05:02:42.982Z,156
2019-05-21T05:03:43.285Z,152
2019-05-21T05:04:43.712Z,156
2019-05-21T05:05:44.415Z,156
2019-05-21T05:06:45.126Z,156
2019-05-21T05:07:46.168Z,156
2019-05-21T05:08:45.820Z,164
2019-05-21T05:09:46.208Z,164
2019-05-21T05:10:49.113Z,172
2019-05-21T05:11:46.780Z,172
2019-05-21T05:12:47.569Z,172
2019-05-21T05:13:47.681Z,184
2019-05-21T05:14:48.665Z,192
2019-05-21T05:15:49.407Z,204
2019-05-21T05:16:49.844Z,192
2019-05-21T05:17:50.543Z,200
2019-05-21T05:18:50.780Z,200
2019-05-21T05:19:51.527Z,204
2019-05-21T05:20:51.940Z,212
2019-05-21T05:21:52.058Z,220
2019-05-21T05:22:52.497Z,220
2019-05-21T05:23:52.972Z,220
2019-05-21T05:24:53.434Z,236
2019-05-21T05:25:53.841Z,236
2019-05-21T05:26:54.237Z,244
2019-05-21T05:27:54.667Z,252
2019-05-21T05:28:54.884Z,248
2019-05-21T05:29:55.039Z,248
2019-05-21T05:30:55.740Z,252
2019-05-21T05:31:56.443Z,252
2019-05-21T05:32:56.858Z,256
2019-05-21T05:33:57.542Z,260
2019-05-21T05:34:57.945Z,256
2019-05-21T05:35:58.355Z,256
2019-05-21T05:36:58.801Z,268
2019-05-21T05:38:00.453Z,268
2019-05-21T05:39:00.437Z,276
2019-05-21T05:40:00.551Z,272
2019-05-21T05:41:01.552Z,280
2019-05-21T05:42:02.114Z,272
2019-05-21T05:43:02.535Z,276
2019-05-21T05:44:03.808Z,280
2019-05-21T05:45:04.206Z,300
2019-05-21T05:46:05.491Z,300
2019-05-21T05:47:05.890Z,304
2019-05-21T05:48:06.287Z,308
2019-05-21T05:49:08.202Z,304
2019-05-21T05:50:08.588Z,316
2019-05-21T05:51:08.307Z,328
2019-05-21T05:52:08.527Z,348
2019-05-21T05:53:09.929Z,372
2019-05-21T05:54:13.374Z,356
2019-05-21T05:55:10.545Z,364
2019-05-21T05:56:11.671Z,368
2019-05-21T05:57:11.847Z,384
2019-05-21T05:58:12.889Z,384
2019-05-21T05:59:14.345Z,384
2019-05-21T06:00:13.552Z,380
2019-05-21T06:01:14.576Z,384
2019-05-21T06:02:15.130Z,368
2019-05-21T06:03:15.892Z,392
2019-05-21T06:04:16.621Z,404
2019-05-21T06:05:17.675Z,408
2019-05-21T06:06:19.254Z,412
2019-05-21T06:07:17.434Z,416
2019-05-21T06:08:17.849Z,424
2019-05-21T06:09:18.663Z,448
2019-05-21T06:10:19.141Z,460
2019-05-21T06:11:20.420Z,508
2019-05-21T06:12:20.826Z,524
2019-05-21T06:13:21.231Z,540
2019-05-21T06:14:22.605Z,500
2019-05-21T06:15:22.785Z,492
2019-05-21T06:16:24.786Z,480
2019-05-21T06:17:23.209Z,488
2019-05-21T06:18:24.200Z,496
2019-05-21T06:19:24.427Z,488
2019-05-21T06:20:24.825Z,472
2019-05-21T06:21:25.873Z,456
2019-05-21T06:22:26.584Z,460
2019-05-21T06:23:27.026Z,468
2019-05-21T06:24:26.509Z,464
2019-05-21T06:25:27.502Z,452
2019-05-21T06:26:27.954Z,452
2019-05-21T06:27:28.363Z,440
2019-05-21T06:28:28.779Z,448
2019-05-21T06:29:30.063Z,444
2019-05-21T06:30:30.792Z,448
2019-05-21T06:31:33.254Z,456
2019-05-21T06:32:34.880Z,452
2019-05-21T06:33:34.071Z,440
2019-05-21T06:34:36.582Z,416
2019-05-21T06:35:35.671Z,444
2019-05-21T06:36:35.829Z,480
2019-05-21T06:37:36.249Z,532
2019-05-21T06:38:36.638Z,580
2019-05-21T06:39:37.871Z,600
2019-05-21T06:40:38.696Z,660
2019-05-21T06:41:38.494Z,688
2019-05-21T06:42:38.617Z,688
2019-05-21T06:43:39.319Z,656
2019-05-21T06:44:40.027Z,652
2019-05-21T06:45:40.319Z,660
2019-05-21T06:46:41.098Z,672
2019-05-21T06:47:42.086Z,704
2019-05-21T06:48:43.506Z,728
2019-05-21T06:49:43.350Z,716
2019-05-21T06:50:44.214Z,688
2019-05-21T06:51:44.738Z,696
2019-05-21T06:52:45.444Z,672
2019-05-21T06:53:47.090Z,664
2019-05-21T06:54:46.246Z,676
2019-05-21T06:55:47.267Z,704
2019-05-21T06:56:47.963Z,704
2019-05-21T06:57:48.651Z,708
2019-05-21T06:58:49.402Z,732
2019-05-21T06:59:50.237Z,752
2019-05-21T07:00:50.356Z,780
2019-05-21T07:01:51.044Z,808
2019-05-21T07:02:53.656Z,832
2019-05-21T07:03:54.634Z,844
2019-05-21T07:04:53.761Z,840
2019-05-21T07:06:10.480Z,800
2019-05-21T07:06:56.137Z,760
2019-05-21T07:07:57.936Z,732
2019-05-21T07:08:55.861Z,692
2019-05-21T07:09:57.090Z,668
2019-05-21T07:10:57.574Z,656
2019-05-21T07:11:57.690Z,656
2019-05-21T07:12:57.812Z,664
2019-05-21T07:13:58.825Z,680
2019-05-21T07:14:59.262Z,696
2019-05-21T07:16:00.129Z,708
2019-05-21T07:16:59.572Z,744
2019-05-21T07:17:59.988Z,748
2019-05-21T07:19:00.900Z,784
2019-05-21T07:20:01.125Z,776
2019-05-21T07:21:01.262Z,812
2019-05-21T07:22:19.050Z,796
2019-05-21T07:23:03.068Z,812
2019-05-21T07:24:02.587Z,848
2019-05-21T07:25:02.711Z,860
2019-05-21T07:26:03.178Z,840
2019-05-21T07:27:03.020Z,836
2019-05-21T07:28:04.031Z,856
2019-05-21T07:29:07.858Z,840
2019-05-21T07:30:05.122Z,876
2019-05-21T07:31:05.855Z,884
2019-05-21T07:32:06.560Z,924
2019-05-21T07:33:07.901Z,964
2019-05-21T07:34:07.395Z,996
2019-05-21T07:35:08.419Z,980
2019-05-21T07:36:09.141Z,1028
2019-05-21T07:37:09.126Z,1020
2019-05-21T07:38:10.004Z,956
2019-05-21T07:39:10.024Z,960
2019-05-21T07:40:10.546Z,972
2019-05-21T07:41:10.973Z,944
2019-05-21T07:42:11.138Z,984
2019-05-21T07:43:11.272Z,952
2019-05-21T07:44:11.700Z,940
2019-05-21T07:45:12.471Z,948
2019-05-21T07:46:15.028Z,948
2019-05-21T07:47:15.509Z,884
2019-05-21T07:48:14.031Z,900
2019-05-21T07:49:14.495Z,908
2019-05-21T07:50:15.158Z,908
2019-05-21T07:51:15.916Z,948
2019-05-21T07:52:16.044Z,984
2019-05-21T07:53:16.462Z,1012
2019-05-21T07:54:17.775Z,984
2019-05-21T07:55:17.888Z,936
2019-05-21T07:56:18.305Z,944
2019-05-21T07:57:18.725Z,940
2019-05-21T07:58:19.771Z,920
2019-05-21T07:59:20.218Z,896
2019-05-21T08:00:21.259Z,896
2019-05-21T08:01:22.245Z,912
2019-05-21T08:02:23.228Z,880
2019-05-21T08:03:24.215Z,876
2019-05-21T08:04:24.696Z,832
2019-05-21T08:05:25.416Z,940
2019-05-21T08:06:26.478Z,968
2019-05-21T08:07:25.923Z,980
2019-05-21T08:08:26.952Z,972
2019-05-21T08:09:26.944Z,952
2019-05-21T08:10:27.885Z,956
2019-05-21T08:11:28.293Z,1008
2019-05-21T08:12:48.526Z,932
2019-05-21T08:13:28.928Z,968
2019-05-21T08:14:29.650Z,920
2019-05-21T08:15:31.376Z,856
2019-05-21T08:16:31.058Z,788
2019-05-21T08:17:31.799Z,808
2019-05-21T08:18:32.495Z,800
2019-05-21T08:19:37.212Z,792
2019-05-21T08:20:33.743Z,812
2019-05-21T08:21:33.861Z,860
2019-05-21T08:22:34.844Z,896
2019-05-21T08:23:34.964Z,980
2019-05-21T08:24:36.151Z,1116
2019-05-21T08:25:35.847Z,1156
2019-05-21T08:26:36.937Z,1176
2019-05-21T08:27:37.016Z,1236
2019-05-21T08:28:37.703Z,1220
2019-05-21T08:29:38.191Z,1232
2019-05-21T08:30:38.874Z,1220
2019-05-21T08:31:39.346Z,1172
2019-05-21T08:32:40.037Z,1172
2019-05-21T08:33:40.155Z,1196
2019-05-21T08:34:40.573Z,1256
2019-05-21T08:35:41.651Z,1228
2019-05-21T08:36:45.683Z,1288
2019-05-21T08:37:44.448Z,1244
2019-05-21T08:38:43.602Z,1256
2019-05-21T08:39:43.729Z,1260
2019-05-21T08:40:45.003Z,1232
2019-05-21T08:41:46.003Z,1164
2019-05-21T08:42:45.727Z,1188
2019-05-21T08:43:46.398Z,1176
2019-05-21T08:44:47.425Z,1116
2019-05-21T08:45:47.849Z,1056
2019-05-21T08:46:50.476Z,1148
2019-05-21T08:47:52.340Z,1188
2019-05-21T08:48:49.783Z,1196
2019-05-21T08:49:50.176Z,1176
2019-05-21T08:50:50.720Z,1236
2019-05-21T08:51:50.839Z,1284
2019-05-21T08:52:54.513Z,1356
2019-05-21T08:53:52.588Z,1380
2019-05-21T08:54:56.027Z,1396
2019-05-21T08:55:52.583Z,1364
2019-05-21T08:56:53.368Z,1352
2019-05-21T08:58:13.328Z,1312
2019-05-21T08:58:54.587Z,1304
2019-05-21T08:59:55.017Z,1300
2019-05-21T09:00:56.330Z,1284
2019-05-21T09:01:59.008Z,1344
2019-05-21T09:02:57.286Z,1384
2019-05-21T09:03:57.697Z,1440
2019-05-21T09:05:01.031Z,1444
2019-05-21T09:05:58.484Z,1484
2019-05-21T09:07:02.409Z,1520
2019-05-21T09:08:04.949Z,1476
2019-05-21T09:08:59.835Z,1472
2019-05-21T09:10:02.608Z,1448
2019-05-21T09:11:00.811Z,1484
2019-05-21T09:12:01.518Z,1500
2019-05-21T09:13:01.942Z,1496
2019-05-21T09:14:02.172Z,1508
2019-05-21T09:15:03.262Z,1440
2019-05-21T09:16:04.438Z,1492
2019-05-21T09:17:03.903Z,1520
2019-05-21T09:18:07.707Z,1452
2019-05-21T09:19:04.656Z,1536
2019-05-21T09:20:05.754Z,1608
2019-05-21T09:21:05.865Z,1672
2019-05-21T09:22:06.564Z,1740
2019-05-21T09:23:07.559Z,1788
2019-05-21T09:24:08.654Z,1776
2019-05-21T09:25:10.437Z,1720
2019-05-21T09:26:10.151Z,1784
2019-05-21T09:27:10.863Z,1716
2019-05-21T09:28:11.294Z,1716
2019-05-21T09:29:12.040Z,1676
2019-05-21T09:30:12.747Z,1652
2019-05-21T09:31:16.398Z,1656
2019-05-21T09:32:14.119Z,1660
2019-05-21T09:33:14.539Z,1704
2019-05-21T09:34:14.711Z,1684
2019-05-21T09:35:15.433Z,1688
2019-05-21T09:36:19.011Z,1684
2019-05-21T09:37:31.024Z,1700
2019-05-21T09:38:17.423Z,1720
2019-05-21T09:39:20.817Z,1812
2019-05-21T09:40:21.307Z,1824
2019-05-21T09:41:22.010Z,1772
2019-05-21T09:42:20.461Z,1756
2019-05-21T09:43:20.379Z,1664
2019-05-21T09:44:20.503Z,1620
2019-05-21T09:45:21.225Z,1648
2019-05-21T09:46:21.638Z,1592
2019-05-21T09:47:25.192Z,1592
2019-05-21T09:48:23.189Z,1596
2019-05-21T09:49:23.243Z,1512
2019-05-21T09:50:23.656Z,1584
2019-05-21T09:51:30.705Z,1512
2019-05-21T09:52:24.133Z,1540
2019-05-21T09:53:25.435Z,1620
2019-05-21T09:54:29.323Z,1652
2019-05-21T09:55:27.329Z,1644
2019-05-21T09:56:27.326Z,1628
2019-05-21T09:57:28.015Z,1684
2019-05-21T09:58:28.449Z,1784
2019-05-21T09:59:31.200Z,1740
2019-05-21T10:00:30.812Z,1712
2019-05-21T10:01:31.337Z,1788
2019-05-21T10:02:31.403Z,1816
2019-05-21T10:03:31.907Z,1700
2019-05-21T10:04:32.026Z,1740
2019-05-21T10:05:32.791Z,1692
2019-05-21T10:06:33.203Z,1712
2019-05-21T10:07:52.349Z,1800
2019-05-21T10:08:37.179Z,1844
2019-05-21T10:09:34.776Z,1820
2019-05-21T10:10:35.486Z,1824
2019-05-21T10:11:36.399Z,1844
2019-05-21T10:12:37.306Z,1920
2019-05-21T10:13:37.671Z,1988
2019-05-21T10:14:40.105Z,2072
2019-05-21T10:15:37.524Z,2264
2019-05-21T10:16:38.270Z,2300
2019-05-21T10:17:39.325Z,2448
2019-05-21T10:18:39.365Z,2380
2019-05-21T10:19:40.085Z,2432
2019-05-21T10:20:40.850Z,2512
2019-05-21T10:21:40.553Z,2396
2019-05-21T10:22:41.732Z,2396
2019-05-21T10:23:41.150Z,2456
2019-05-21T10:24:43.779Z,2492
2019-05-21T10:25:44.633Z,2448
2019-05-21T10:26:46.393Z,2348
2019-05-21T10:27:47.593Z,2312
2019-05-21T10:28:45.484Z,2316
2019-05-21T10:29:46.224Z,2220
2019-05-21T10:30:47.655Z,2168
2019-05-21T10:31:46.929Z,2156
2019-05-21T10:32:49.774Z,2264
2019-05-21T10:33:49.881Z,2256
2019-05-21T10:34:48.878Z,2108
2019-05-21T10:35:49.041Z,2120
2019-05-21T10:36:50.079Z,2084
2019-05-21T10:38:05.337Z,2112
2019-05-21T10:38:52.506Z,2156
2019-05-21T10:39:52.658Z,2120
2019-05-21T10:40:50.901Z,2112
2019-05-21T10:41:52.996Z,2040
2019-05-21T10:42:52.738Z,2068
2019-05-21T10:43:53.281Z,2288
2019-05-21T10:44:54.369Z,2364
2019-05-21T10:45:55.595Z,2428
2019-05-21T10:46:55.389Z,2360
2019-05-21T10:47:56.438Z,2320
2019-05-21T10:48:57.420Z,2248
2019-05-21T10:49:58.140Z,2144
2019-05-21T10:51:00.938Z,2000
2019-05-21T10:51:59.448Z,1880
2019-05-21T10:53:00.062Z,1736
2019-05-21T10:54:01.637Z,1772
2019-05-21T10:55:04.522Z,1948
2019-05-21T10:56:03.467Z,2012
2019-05-21T10:57:04.840Z,2236
2019-05-21T10:58:03.913Z,2348
2019-05-21T10:59:04.644Z,2284
2019-05-21T11:00:06.992Z,2240
2019-05-21T11:01:06.635Z,2204
2019-05-21T11:02:06.486Z,2192
2019-05-21T11:03:06.934Z,2200
2019-05-21T11:04:07.649Z,2364
2019-05-21T11:05:08.359Z,2328
2019-05-21T11:06:20.911Z,2200
2019-05-21T11:07:10.086Z,2168
2019-05-21T11:08:35.736Z,2120
2019-05-21T11:09:10.633Z,2168
2019-05-21T11:10:14.023Z,2228
2019-05-21T11:11:11.766Z,2204
2019-05-21T11:12:13.439Z,2232
2019-05-21T11:13:14.163Z,2272
2019-05-21T11:14:15.155Z,2428
2019-05-21T11:15:15.877Z,2356
2019-05-21T11:16:17.296Z,2312
2019-05-21T11:17:17.425Z,2004
2019-05-21T11:18:22.282Z,1772
2019-05-21T11:19:17.710Z,1876
2019-05-21T11:20:17.862Z,1776
2019-05-21T11:21:18.283Z,1664
2019-05-21T11:22:19.095Z,1548
2019-05-21T11:23:19.545Z,1560
2019-05-21T11:24:20.757Z,1788
2019-05-21T11:25:20.462Z,1900
2019-05-21T11:26:21.465Z,2052
2019-05-21T11:27:21.584Z,1904
2019-05-21T11:28:22.296Z,1980
2019-05-21T11:29:23.257Z,2212
2019-05-21T11:30:24.073Z,2236
2019-05-21T11:31:24.778Z,2368
2019-05-21T11:32:25.452Z,2372
2019-05-21T11:33:25.586Z,2412
2019-05-21T11:34:26.298Z,2492
2019-05-21T11:35:27.309Z,2348
2019-05-21T11:36:27.348Z,2444
2019-05-21T11:37:27.466Z,2480
2019-05-21T11:38:44.220Z,2492
2019-05-21T11:39:28.910Z,2516
2019-05-21T11:40:31.039Z,2636
2019-05-21T11:41:29.833Z,2528
2019-05-21T11:42:34.347Z,2544
2019-05-21T11:43:31.126Z,2544
2019-05-21T11:44:31.624Z,2388
2019-05-21T11:45:45.218Z,2480
2019-05-21T11:46:32.471Z,2496
2019-05-21T11:47:34.681Z,2568
2019-05-21T11:48:33.944Z,2548
2019-05-21T11:49:34.934Z,2424
2019-05-21T11:50:38.910Z,2564
2019-05-21T11:51:36.058Z,2436
2019-05-21T11:52:36.284Z,2356
2019-05-21T11:53:37.909Z,2504
2019-05-21T11:54:37.620Z,2440
2019-05-21T11:55:37.735Z,2452
2019-05-21T11:56:42.035Z,2468
2019-05-21T11:57:41.666Z,2488
2019-05-21T11:58:46.557Z,2496
2019-05-21T11:59:40.285Z,2452
2019-05-21T12:00:40.986Z,2468
2019-05-21T12:01:41.704Z,2492
2019-05-21T12:02:42.309Z,2392
2019-05-21T12:03:44.915Z,2364
2019-05-21T12:04:44.615Z,2428
2019-05-21T12:05:44.572Z,2348
2019-05-21T12:06:44.695Z,2356
2019-05-21T12:07:45.156Z,2356
2019-05-21T12:09:03.764Z,2224
2019-05-21T12:09:46.496Z,2240
2019-05-21T12:10:47.187Z,2184
2019-05-21T12:11:47.597Z,2196
2019-05-21T12:12:48.729Z,2224
2019-05-21T12:13:49.491Z,2208
2019-05-21T12:14:49.851Z,2204
2019-05-21T12:15:49.984Z,2260
2019-05-21T12:16:50.956Z,2204
2019-05-21T12:17:51.728Z,2232
2019-05-21T12:18:54.815Z,2228
2019-05-21T12:19:52.387Z,2244
2019-05-21T12:20:53.086Z,2292
2019-05-21T12:21:54.085Z,2212
2019-05-21T12:22:54.311Z,2100
2019-05-21T12:23:55.781Z,2164
2019-05-21T12:24:55.491Z,2296
2019-05-21T12:25:56.188Z,2476
2019-05-21T12:26:56.891Z,2660
2019-05-21T12:27:57.307Z,2644
2019-05-21T12:28:58.089Z,2640
2019-05-21T12:30:01.715Z,2588
2019-05-21T12:30:59.366Z,2600
2019-05-21T12:31:59.994Z,2536
2019-05-21T12:33:00.421Z,2424
2019-05-21T12:34:01.493Z,2332
2019-05-21T12:35:01.969Z,2288
2019-05-21T12:36:03.016Z,2292
2019-05-21T12:37:04.002Z,2264
2019-05-21T12:38:04.714Z,2220
2019-05-21T12:39:20.413Z,2152
2019-05-21T12:40:05.828Z,2104
2019-05-21T12:41:06.247Z,2004
2019-05-21T12:42:07.590Z,1880
2019-05-21T12:43:07.855Z,2052
2019-05-21T12:44:08.285Z,1860
2019-05-21T12:45:09.304Z,1956
2019-05-21T12:46:09.292Z,1936
2019-05-21T12:47:10.093Z,1988
2019-05-21T12:48:10.260Z,1992
2019-05-21T12:49:10.679Z,1992
2019-05-21T12:50:12.000Z,1920
2019-05-21T12:51:12.001Z,1980
2019-05-21T12:52:12.723Z,1848
2019-05-21T12:53:16.480Z,1716
2019-05-21T12:54:14.119Z,1820
2019-05-21T12:55:14.862Z,1808
2019-05-21T12:56:16.051Z,1800
2019-05-21T12:57:16.396Z,1836
2019-05-21T12:58:16.265Z,1796
2019-05-21T12:59:16.714Z,1804
2019-05-21T13:00:17.203Z,1800
2019-05-21T13:01:17.689Z,1756
2019-05-21T13:02:18.109Z,1808
2019-05-21T13:03:18.394Z,1792
2019-05-21T13:04:18.816Z,1716
2019-05-21T13:05:22.769Z,1816
2019-05-21T13:06:20.656Z,1836
2019-05-21T13:07:21.797Z,1828
2019-05-21T13:08:22.591Z,1828
2019-05-21T13:09:38.727Z,1756
2019-05-21T13:10:26.685Z,1972
2019-05-21T13:11:23.541Z,2032
2019-05-21T13:12:24.763Z,2040
2019-05-21T13:13:24.722Z,2012
2019-05-21T13:14:30.210Z,2016
2019-05-21T13:15:26.020Z,1976
2019-05-21T13:16:26.996Z,2004
2019-05-21T13:17:27.138Z,2032
2019-05-21T13:18:27.596Z,1980
2019-05-21T13:19:28.071Z,1916
2019-05-21T13:20:28.871Z,1896
2019-05-21T13:21:29.962Z,1824
2019-05-21T13:22:29.827Z,1904
2019-05-21T13:23:30.954Z,1856
2019-05-21T13:24:31.407Z,1836
2019-05-21T13:25:32.136Z,1792
2019-05-21T13:26:32.931Z,1772
2019-05-21T13:27:33.951Z,1728
2019-05-21T13:28:34.987Z,1732
2019-05-21T13:29:36.488Z,1696
2019-05-21T13:30:36.367Z,1676
2019-05-21T13:31:36.882Z,1672
2019-05-21T13:32:36.893Z,1648
2019-05-21T13:33:37.603Z,1564
2019-05-21T13:34:38.842Z,1556
2019-05-21T13:35:38.992Z,1556
2019-05-21T13:36:39.114Z,1524
2019-05-21T13:37:39.605Z,1580
2019-05-21T13:38:41.718Z,1608
2019-05-21T13:39:56.003Z,1556
2019-05-21T13:40:42.237Z,1500
2019-05-21T13:41:42.657Z,1492
2019-05-21T13:42:43.144Z,1556
2019-05-21T13:43:43.760Z,1540
2019-05-21T13:44:44.195Z,1532
2019-05-21T13:45:44.919Z,1516
2019-05-21T13:46:46.433Z,1508
2019-05-21T13:47:46.708Z,1480
2019-05-21T13:48:47.341Z,1484
2019-05-21T13:49:48.074Z,1496
2019-05-21T13:50:48.869Z,1460
2019-05-21T13:51:49.284Z,1476
2019-05-21T13:52:49.729Z,1508
2019-05-21T13:53:50.326Z,1516
2019-05-21T13:54:50.805Z,1508
2019-05-21T13:55:50.929Z,1528
2019-05-21T13:56:51.355Z,1484
2019-05-21T13:57:52.100Z,1480
2019-05-21T13:58:53.088Z,1448
2019-05-21T13:59:56.773Z,1344